createdAt,value
2023-03-12T00:02:11.630Z,97523.59
2023-03-12T00:04:38.489Z,97527.84
2023-03-12T00:07:06.690Z,97525.94
2023-03-12T00:09:38.687Z,97526.28
2023-03-12T00:12:09.680Z,97524.38
2023-03-12T00:14:36.807Z,97525.94
2023-03-12T00:17:03.914Z,97530.19
2023-03-12T00:19:30.806Z,97529.84
2023-03-12T00:21:57.303Z,97529.84
2023-03-12T00:24:26.078Z,97529.09
2023-03-12T00:26:54.359Z,97529.09
2023-03-12T00:29:20.911Z,97532.53
2023-03-12T00:31:47.850Z,97527.84
2023-03-12T00:34:21.067Z,97524.50
2023-03-12T00:36:47.573Z,97530.28
2023-03-12T00:39:14.058Z,97531.09
2023-03-12T00:41:42.299Z,97530.75
2023-03-12T00:44:09.001Z,97532.19
2023-03-12T00:46:35.598Z,97534.09
2023-03-12T00:49:02.259Z,97533.75
2023-03-12T00:51:28.891Z,97542.88
2023-03-12T00:53:56.059Z,97538.31
2023-03-12T00:56:29.093Z,97545.22
2023-03-12T00:58:55.656Z,97549.00
2023-03-12T01:01:22.567Z,97546.31
2023-03-12T01:03:53.677Z,97545.56
2023-03-12T01:06:20.749Z,97542.13
2023-03-12T01:08:49.586Z,97547.47
2023-03-12T01:11:20.760Z,97552.81
2023-03-12T01:13:47.511Z,97555.16
2023-03-12T01:16:14.612Z,97551.34
2023-03-12T01:18:41.823Z,97543.66
2023-03-12T01:21:08.300Z,97552.47
2023-03-12T01:23:34.812Z,97554.00
2023-03-12T01:26:03.133Z,97546.00
2023-03-12T01:28:29.660Z,97546.00
2023-03-12T01:30:56.212Z,97546.78
2023-03-12T01:33:24.693Z,97552.91
2023-03-12T01:35:51.426Z,97549.47
2023-03-12T01:38:19.182Z,97546.47
2023-03-12T01:40:45.922Z,97545.34
2023-03-12T01:43:33.906Z,97533.09
2023-03-12T01:46:26.451Z,97542.22
2023-03-12T01:49:01.771Z,97535.63
2023-03-12T01:51:42.173Z,97529.84
2023-03-12T01:54:17.291Z,97527.59
2023-03-12T01:56:44.341Z,97527.94
2023-03-12T01:59:16.604Z,97535.19
2023-03-12T02:01:43.478Z,97529.84
2023-03-12T02:04:13.494Z,97528.75
2023-03-12T02:06:49.451Z,97529.50
2023-03-12T02:09:22.496Z,97535.63
2023-03-12T02:11:49.095Z,97527.59
2023-03-12T02:14:16.322Z,97529.19
2023-03-12T02:16:47.869Z,97529.94
2023-03-12T02:19:42.629Z,97529.63
2023-03-12T02:22:14.322Z,97532.31
2023-03-12T02:24:43.806Z,97537.66
2023-03-12T02:27:12.007Z,97533.84
2023-03-12T02:29:42.221Z,97535.41
2023-03-12T02:32:15.618Z,97540.91
2023-03-12T02:34:42.773Z,97549.34
2023-03-12T02:37:09.598Z,97542.09
2023-03-12T02:39:37.223Z,97543.34
2023-03-12T02:42:03.977Z,97532.63
2023-03-12T02:44:33.598Z,97523.50
2023-03-12T02:47:01.606Z,97518.16
2023-03-12T02:49:30.584Z,97509.69
2023-03-12T02:52:01.682Z,97491.28
2023-03-12T02:54:28.220Z,97481.59
2023-03-12T02:56:55.109Z,97491.88
2023-03-12T02:59:24.432Z,97491.06
2023-03-12T03:01:58.889Z,97493.75
2023-03-12T03:04:29.389Z,97475.81
2023-03-12T03:06:55.988Z,97478.03
2023-03-12T03:09:23.035Z,97488.72
2023-03-12T03:11:52.518Z,97504.00
2023-03-12T03:14:19.481Z,97495.66
2023-03-12T03:16:46.043Z,97490.41
2023-03-12T03:19:14.288Z,97467.47
2023-03-12T03:21:44.044Z,97482.63
2023-03-12T03:24:11.033Z,97481.72
2023-03-12T03:26:37.735Z,97502.97
2023-03-12T03:29:04.298Z,97507.56
2023-03-12T03:31:30.955Z,97519.03
2023-03-12T03:34:04.052Z,97509.81
2023-03-12T03:36:30.590Z,97517.47
2023-03-12T03:38:57.805Z,97506.34
2023-03-12T03:41:24.604Z,97508.09
2023-03-12T03:43:55.660Z,97506.56
2023-03-12T03:46:22.232Z,97516.94
2023-03-12T03:48:51.087Z,97510.78
2023-03-12T03:51:17.734Z,97501.66
2023-03-12T03:53:45.908Z,97501.31
2023-03-12T03:56:15.695Z,97497.53
2023-03-12T03:58:43.166Z,97500.97
2023-03-12T04:01:09.832Z,97497.19
2023-03-12T04:03:36.833Z,97496.88
2023-03-12T04:06:06.612Z,97496.53
2023-03-12T04:08:35.602Z,97497.31
2023-03-12T04:11:18.623Z,97489.63
2023-03-12T04:13:46.261Z,97506.78
2023-03-12T04:16:15.935Z,97504.88
2023-03-12T04:18:45.081Z,97510.56
2023-03-12T04:21:13.336Z,97509.00
2023-03-12T04:23:40.073Z,97509.00
2023-03-12T04:26:07.373Z,97500.66
2023-03-12T04:28:35.226Z,97498.44
2023-03-12T04:31:04.452Z,97493.53
2023-03-12T04:33:41.040Z,97494.75
2023-03-12T04:36:08.486Z,97489.75
2023-03-12T04:38:35.333Z,97482.50
2023-03-12T04:41:07.740Z,97472.94
2023-03-12T04:43:36.544Z,97488.16
2023-03-12T04:46:03.542Z,97495.75
2023-03-12T04:48:30.208Z,97497.31
2023-03-12T04:50:59.261Z,97505.00
2023-03-12T04:53:25.812Z,97509.22
2023-03-12T04:55:52.795Z,97519.59
2023-03-12T04:58:22.372Z,97517.38
2023-03-12T05:00:50.077Z,97517.81
2023-03-12T05:03:17.438Z,97520.16
2023-03-12T05:05:44.472Z,97519.81
2023-03-12T05:08:10.967Z,97524.84
2023-03-12T05:10:37.547Z,97533.31
2023-03-12T05:13:04.101Z,97527.19
2023-03-12T05:15:30.581Z,97533.31
2023-03-12T05:17:57.092Z,97532.19
2023-03-12T05:20:25.353Z,97526.84
2023-03-12T05:22:52.225Z,97527.63
2023-03-12T05:25:22.449Z,97535.31
2023-03-12T05:27:50.729Z,97522.72
2023-03-12T05:30:17.481Z,97521.16
2023-03-12T05:32:44.052Z,97526.06
2023-03-12T05:35:10.769Z,97520.28
2023-03-12T05:37:37.336Z,97519.03
2023-03-12T05:40:04.338Z,97522.47
2023-03-12T05:42:31.096Z,97519.50
2023-03-12T05:44:57.765Z,97518.28
2023-03-12T05:47:24.277Z,97521.03
2023-03-12T05:49:55.420Z,97521.16
2023-03-12T05:52:21.972Z,97524.28
2023-03-12T05:54:48.550Z,97528.97
2023-03-12T05:57:15.217Z,97533.66
2023-03-12T05:59:41.708Z,97526.88
2023-03-12T06:02:08.467Z,97534.56
2023-03-12T06:04:36.713Z,97533.88
2023-03-12T06:07:03.315Z,97542.34
2023-03-12T06:09:29.832Z,97543.91
2023-03-12T06:11:56.477Z,97541.66
2023-03-12T06:14:23.091Z,97547.47
2023-03-12T06:16:49.651Z,97541.00
2023-03-12T06:19:18.393Z,97544.13
2023-03-12T06:21:44.955Z,97549.94
2023-03-12T06:24:11.503Z,97555.72
2023-03-12T06:26:48.807Z,97549.69
2023-03-12T06:29:16.237Z,97552.03
2023-03-12T06:31:44.150Z,97556.28
2023-03-12T06:34:18.545Z,97557.03
2023-03-12T06:36:45.217Z,97555.94
2023-03-12T06:39:11.703Z,97559.16
2023-03-12T06:41:38.525Z,97563.97
2023-03-12T06:44:06.325Z,97558.69
2023-03-12T06:46:37.177Z,97577.22
2023-03-12T06:49:04.118Z,97578.19
2023-03-12T06:51:30.643Z,97589.91
2023-03-12T06:53:57.201Z,97593.13
2023-03-12T06:56:25.527Z,97594.03
2023-03-12T06:58:55.386Z,97589.09
2023-03-12T07:01:22.119Z,97591.91
2023-03-12T07:03:50.439Z,97598.91
2023-03-12T07:06:20.088Z,97597.78
2023-03-12T07:08:47.274Z,97602.47
2023-03-12T07:11:14.354Z,97607.16
2023-03-12T07:13:41.852Z,97603.22
2023-03-12T07:16:08.786Z,97614.88
2023-03-12T07:18:37.152Z,97615.22
2023-03-12T07:21:04.002Z,97622.47
2023-03-12T07:23:32.738Z,97619.13
2023-03-12T07:25:59.427Z,97617.09
2023-03-12T07:28:25.915Z,97609.94
2023-03-12T07:30:52.418Z,97616.16
2023-03-12T07:33:21.734Z,97607.34
2023-03-12T07:35:51.924Z,97607.75
2023-03-12T07:38:18.989Z,97607.31
2023-03-12T07:40:45.602Z,97600.72
2023-03-12T07:43:12.819Z,97601.09
2023-03-12T07:45:39.923Z,97601.53
2023-03-12T07:48:07.605Z,97601.19
2023-03-12T07:50:35.187Z,97602.50
2023-03-12T07:53:01.952Z,97599.19
2023-03-12T07:55:28.959Z,97600.25
2023-03-12T07:57:58.456Z,97609.44
2023-03-12T08:00:26.516Z,97612.28
2023-03-12T08:02:55.677Z,97616.09
2023-03-12T08:05:24.783Z,97616.34
2023-03-12T08:07:52.460Z,97613.84
2023-03-12T08:10:22.241Z,97625.69
2023-03-12T08:12:49.366Z,97626.38
2023-03-12T08:15:16.499Z,97634.88
2023-03-12T08:17:45.326Z,97630.34
2023-03-12T08:20:12.755Z,97629.69
2023-03-12T08:22:40.346Z,97632.44
2023-03-12T08:25:12.759Z,97636.53
2023-03-12T08:27:39.595Z,97630.38
2023-03-12T08:30:07.139Z,97631.94
2023-03-12T08:32:33.950Z,97632.63
2023-03-12T08:35:00.689Z,97637.13
2023-03-12T08:37:27.440Z,97629.44
2023-03-12T08:39:56.488Z,97636.28
2023-03-12T08:42:23.146Z,97641.63
2023-03-12T08:44:49.642Z,97645.03
2023-03-12T08:47:16.114Z,97643.63
2023-03-12T08:49:42.656Z,97650.63
2023-03-12T08:52:11.092Z,97645.25
2023-03-12T08:54:39.432Z,97646.94
2023-03-12T08:57:05.931Z,97652.97
2023-03-12T08:59:32.450Z,97650.53
2023-03-12T09:02:00.683Z,97650.97
2023-03-12T09:04:30.750Z,97651.47
2023-03-12T09:06:57.326Z,97651.28
2023-03-12T09:09:25.594Z,97657.19
2023-03-12T09:11:52.145Z,97658.28
2023-03-12T09:15:02.075Z,97655.25
2023-03-12T09:17:05.428Z,97655.97
2023-03-12T09:19:31.940Z,97649.88
2023-03-12T09:21:58.488Z,97657.19
2023-03-12T09:24:26.671Z,97658.06
2023-03-12T09:26:53.205Z,97649.03
2023-03-12T09:29:19.851Z,97663.31
2023-03-12T09:31:46.547Z,97662.38
2023-03-12T09:34:13.081Z,97664.25
2023-03-12T09:36:39.907Z,97667.38
2023-03-12T09:39:06.507Z,97671.97
2023-03-12T09:41:36.815Z,97680.84
2023-03-12T09:44:18.792Z,97696.72
2023-03-12T09:46:56.080Z,97711.16
2023-03-12T09:49:42.139Z,97716.13
2023-03-12T09:52:28.103Z,97710.41
2023-03-12T09:55:01.332Z,97726.03
2023-03-12T09:57:29.939Z,97730.88
2023-03-12T09:59:57.062Z,97735.16
2023-03-12T10:02:28.245Z,97740.00
2023-03-12T10:05:06.432Z,97747.78
2023-03-12T10:07:40.822Z,97742.56
2023-03-12T10:10:39.897Z,97739.66
2023-03-12T10:13:31.110Z,97746.72
2023-03-12T10:16:23.571Z,97747.25
2023-03-12T10:19:11.133Z,97736.13
2023-03-12T10:21:49.494Z,97738.13
2023-03-12T10:24:36.561Z,97739.91
2023-03-12T10:27:18.860Z,97749.59
2023-03-12T10:29:49.015Z,97760.75
2023-03-12T10:32:53.138Z,97760.09
2023-03-12T10:35:23.094Z,97769.47
2023-03-12T10:37:59.204Z,97774.16
2023-03-12T10:40:39.292Z,97771.53
2023-03-12T10:43:09.901Z,97769.94
2023-03-12T10:46:08.469Z,97766.78
2023-03-12T10:48:37.043Z,97769.91
2023-03-12T10:51:09.076Z,97771.47
2023-03-12T10:53:36.448Z,97774.03
2023-03-12T10:56:10.110Z,97766.03
2023-03-12T10:58:40.781Z,97768.06
2023-03-12T11:01:19.260Z,97774.56
2023-03-12T11:03:46.493Z,97778.97
2023-03-12T11:06:25.609Z,97776.25
2023-03-12T11:09:17.742Z,97778.75
2023-03-12T11:11:47.544Z,97776.69
2023-03-12T11:14:25.597Z,97788.97
2023-03-12T11:16:53.125Z,97791.38
2023-03-12T11:19:29.396Z,97789.81
2023-03-12T11:22:02.441Z,97788.22
2023-03-12T11:24:29.828Z,97787.28
2023-03-12T11:27:05.432Z,97794.44
2023-03-12T11:29:39.914Z,97794.28
2023-03-12T11:32:22.456Z,97785.81
2023-03-12T11:34:50.160Z,97783.84
2023-03-12T11:37:33.901Z,97773.88
2023-03-12T11:40:18.681Z,97772.03
2023-03-12T11:42:58.980Z,97772.00
2023-03-12T11:45:47.066Z,97772.00
2023-03-12T11:48:39.579Z,97768.13
2023-03-12T11:51:21.191Z,97762.75
2023-03-12T11:54:13.119Z,97752.38
2023-03-12T11:56:50.904Z,97769.78
2023-03-12T11:59:33.423Z,97761.69
2023-03-12T12:02:05.871Z,97760.72
2023-03-12T12:05:12.405Z,97760.03
2023-03-12T12:07:59.967Z,97753.72
2023-03-12T12:10:46.684Z,97757.22
2023-03-12T12:13:31.088Z,97764.06
2023-03-12T12:16:17.413Z,97766.16
2023-03-12T12:19:11.488Z,97775.09
2023-03-12T12:21:59.749Z,97781.47
2023-03-12T12:24:48.873Z,97773.38
2023-03-12T12:27:24.327Z,97778.34
2023-03-12T12:30:00.826Z,97771.91
2023-03-12T12:32:59.141Z,97768.59
2023-03-12T12:35:42.988Z,97762.50
2023-03-12T12:38:17.399Z,97768.28
2023-03-12T12:40:55.072Z,97764.41
2023-03-12T12:43:38.639Z,97759.75
2023-03-12T12:46:14.598Z,97761.19
2023-03-12T12:48:54.758Z,97773.81
2023-03-12T12:51:26.644Z,97759.44
2023-03-12T12:54:02.658Z,97766.41
2023-03-12T12:56:38.540Z,97762.13
2023-03-12T12:59:33.268Z,97764.84
2023-03-12T13:02:02.670Z,97772.56
2023-03-12T13:04:38.130Z,97761.03
2023-03-12T13:07:27.607Z,97756.03
2023-03-12T13:09:56.644Z,97760.63
2023-03-12T13:12:44.693Z,97758.28
2023-03-12T13:15:40.061Z,97758.72
2023-03-12T13:18:22.819Z,97765.41
2023-03-12T13:20:52.057Z,97757.72
2023-03-12T13:23:30.398Z,97759.28
2023-03-12T13:25:59.966Z,97760.09
2023-03-12T13:28:41.955Z,97757.41
2023-03-12T13:31:16.632Z,97757.47
2023-03-12T13:33:48.132Z,97754.06
2023-03-12T13:36:26.051Z,97762.22
2023-03-12T13:39:28.110Z,97757.03
2023-03-12T13:41:58.370Z,97756.84
2023-03-12T13:44:27.618Z,97751.16
2023-03-12T13:46:59.770Z,97754.25
2023-03-12T13:49:27.221Z,97753.09
2023-03-12T13:51:58.424Z,97747.66
2023-03-12T13:54:31.283Z,97740.34
2023-03-12T13:57:02.093Z,97752.41
2023-03-12T13:59:30.048Z,97750.19
2023-03-12T14:02:12.365Z,97751.41
2023-03-12T14:04:42.081Z,97746.81
2023-03-12T14:07:53.599Z,97734.88
2023-03-12T14:10:26.055Z,97737.97
2023-03-12T14:13:06.446Z,97737.53
2023-03-12T14:15:46.156Z,97731.75
2023-03-12T14:18:19.309Z,97728.25
2023-03-12T14:20:54.190Z,97720.91
2023-03-12T14:23:22.577Z,97705.78
2023-03-12T14:25:49.842Z,97718.97
2023-03-12T14:28:21.813Z,97706.19
2023-03-12T14:31:08.827Z,97707.31
2023-03-12T14:33:42.583Z,97707.28
2023-03-12T14:36:24.733Z,97710.41
2023-03-12T14:38:58.184Z,97702.69
2023-03-12T14:41:31.271Z,97695.72
2023-03-12T14:44:06.687Z,97698.03
2023-03-12T14:46:33.418Z,97697.63
2023-03-12T14:48:59.961Z,97699.19
2023-03-12T14:51:30.369Z,97702.72
2023-03-12T14:54:01.789Z,97714.31
2023-03-12T14:56:35.411Z,97703.09
2023-03-12T14:59:23.436Z,97698.03
2023-03-12T15:01:50.892Z,97694.94
2023-03-12T15:04:23.814Z,97696.50
2023-03-12T15:06:54.351Z,97687.19
2023-03-12T15:09:33.935Z,97693.00
2023-03-12T15:12:17.873Z,97695.69
2023-03-12T15:14:46.929Z,97697.25
2023-03-12T15:17:22.196Z,97704.19
2023-03-12T15:19:49.422Z,97699.94
2023-03-12T15:22:19.388Z,97703.81
2023-03-12T15:24:46.068Z,97697.63
2023-03-12T15:27:23.487Z,97699.94
2023-03-12T15:29:52.193Z,97692.63
2023-03-12T15:32:22.630Z,97689.13
2023-03-12T15:34:49.787Z,97700.34
2023-03-12T15:37:23.050Z,97688.75
2023-03-12T15:39:52.742Z,97680.22
2023-03-12T15:42:25.767Z,97683.31
2023-03-12T15:44:58.835Z,97679.84
2023-03-12T15:47:28.351Z,97682.53
2023-03-12T15:49:57.774Z,97684.88
2023-03-12T15:52:33.152Z,97683.34
2023-03-12T15:55:02.677Z,97685.25
2023-03-12T16:00:31.248Z,97681.78
2023-03-12T16:03:05.988Z,97675.94
2023-03-12T16:05:41.365Z,97668.56
2023-03-12T16:08:29.424Z,97673.22
2023-03-12T16:11:00.756Z,97675.53
2023-03-12T16:13:31.348Z,97677.88
2023-03-12T16:16:00.999Z,97681.72
2023-03-12T16:18:27.776Z,97685.97
2023-03-12T16:20:54.516Z,97689.44
2023-03-12T16:23:21.141Z,97695.25
2023-03-12T16:25:53.227Z,97691.00
2023-03-12T16:28:21.356Z,97686.72
2023-03-12T16:30:48.625Z,97677.00
2023-03-12T16:33:17.741Z,97687.06
2023-03-12T16:35:44.542Z,97677.78
2023-03-12T16:38:11.279Z,97681.25
2023-03-12T16:40:42.694Z,97679.69
2023-03-12T16:43:16.893Z,97678.13
2023-03-12T16:45:52.494Z,97666.47
2023-03-12T16:48:24.413Z,97662.22
2023-03-12T16:50:53.682Z,97660.63
2023-03-12T16:53:20.961Z,97669.50
2023-03-12T16:56:00.869Z,97666.38
2023-03-12T16:58:31.895Z,97665.56
2023-03-12T17:00:59.050Z,97663.56
2023-03-12T17:03:35.657Z,97668.94
2023-03-12T17:06:03.824Z,97672.03
2023-03-12T17:08:33.824Z,97657.69
2023-03-12T17:11:00.385Z,97660.41
2023-03-12T17:13:31.290Z,97658.47
2023-03-12T17:15:58.795Z,97650.28
2023-03-12T17:18:25.379Z,97657.91
2023-03-12T17:20:56.595Z,97659.38
2023-03-12T17:23:28.781Z,97660.81
2023-03-12T17:25:55.669Z,97660.69
2023-03-12T17:28:24.545Z,97658.75
2023-03-12T17:30:51.164Z,97662.59
2023-03-12T17:33:18.980Z,97669.06
2023-03-12T17:35:46.186Z,97679.81
2023-03-12T17:38:16.858Z,97685.91
2023-03-12T17:40:44.953Z,97682.75
2023-03-12T17:43:13.631Z,97687.22
2023-03-12T17:45:40.220Z,97689.03
2023-03-12T17:48:06.915Z,97680.03
2023-03-12T17:50:35.562Z,97690.34
2023-03-12T17:53:02.075Z,97699.09
2023-03-12T17:55:28.737Z,97700.97
2023-03-12T17:57:55.397Z,97705.56
2023-03-12T18:00:23.112Z,97701.34
2023-03-12T18:02:50.354Z,97714.03
2023-03-12T18:05:18.748Z,97718.22
2023-03-12T18:07:48.215Z,97722.84
2023-03-12T18:10:15.200Z,97722.09
2023-03-12T18:12:41.847Z,97719.75
2023-03-12T18:15:13.890Z,97719.75
2023-03-12T18:17:41.475Z,97722.00
2023-03-12T18:20:19.552Z,97723.13
2023-03-12T18:22:51.637Z,97726.19
2023-03-12T18:25:18.268Z,97735.81
2023-03-12T18:27:44.883Z,97742.72
2023-03-12T18:30:12.653Z,97743.09
2023-03-12T18:32:42.380Z,97748.03
2023-03-12T18:35:09.424Z,97738.00
2023-03-12T18:37:35.892Z,97744.13
2023-03-12T18:40:04.197Z,97741.00
2023-03-12T18:42:30.788Z,97741.34
2023-03-12T18:44:57.284Z,97741.69
2023-03-12T18:47:25.728Z,97731.56
2023-03-12T18:49:55.084Z,97732.59
2023-03-12T18:52:22.150Z,97737.41
2023-03-12T18:54:50.387Z,97753.81
2023-03-12T18:57:16.882Z,97748.31
2023-03-12T18:59:46.118Z,97747.41
2023-03-12T19:02:12.877Z,97746.06
2023-03-12T19:04:39.553Z,97744.81
2023-03-12T19:07:07.508Z,97745.81
2023-03-12T19:09:34.269Z,97750.66
2023-03-12T19:12:04.341Z,97743.16
2023-03-12T19:14:31.405Z,97745.22
2023-03-12T19:16:58.183Z,97753.50
2023-03-12T19:19:24.832Z,97755.72
2023-03-12T19:21:51.295Z,97756.78
2023-03-12T19:24:22.269Z,97760.09
2023-03-12T19:26:48.711Z,97765.38
2023-03-12T19:29:16.522Z,97769.84
2023-03-12T19:31:45.206Z,97762.84
2023-03-12T19:34:11.762Z,97763.13
2023-03-12T19:36:41.730Z,97764.94
2023-03-12T19:39:15.238Z,97768.25
2023-03-12T19:41:47.368Z,97760.03
2023-03-12T19:44:15.676Z,97767.59
2023-03-12T19:46:43.317Z,97775.16
2023-03-12T19:49:10.151Z,97778.78
2023-03-12T19:51:42.903Z,97776.28
2023-03-12T19:54:11.218Z,97784.53
2023-03-12T19:56:37.764Z,97787.47
2023-03-12T19:59:04.566Z,97790.88
2023-03-12T20:01:32.807Z,97785.63
2023-03-12T20:03:59.308Z,97784.00
2023-03-12T20:06:25.805Z,97779.63
2023-03-12T20:08:52.305Z,97782.94
2023-03-12T20:11:19.084Z,97786.22
2023-03-12T20:13:45.549Z,97799.13
2023-03-12T20:16:13.928Z,97791.31
2023-03-12T20:18:40.516Z,97795.47
2023-03-12T20:21:06.998Z,97796.84
2023-03-12T20:23:33.660Z,97790.72
2023-03-12T20:26:00.181Z,97803.16
2023-03-12T20:28:26.913Z,97802.44
2023-03-12T20:30:53.957Z,97801.25
2023-03-12T20:33:21.013Z,97800.56
2023-03-12T20:35:50.170Z,97804.38
2023-03-12T20:38:16.835Z,97806.47
2023-03-12T20:40:45.636Z,97810.38
2023-03-12T20:43:12.146Z,97799.97
2023-03-12T20:45:49.674Z,97803.97
2023-03-12T20:48:18.923Z,97807.78
2023-03-12T20:50:46.093Z,97803.28
2023-03-12T20:53:12.599Z,97800.94
2023-03-12T20:55:39.698Z,97808.75
2023-03-12T20:58:06.504Z,97809.53
2023-03-12T21:00:33.249Z,97804.16
2023-03-12T21:02:59.792Z,97811.69
2023-03-12T21:05:27.588Z,97803.97
2023-03-12T21:07:56.154Z,97797.81
2023-03-12T21:10:22.627Z,97790.88
2023-03-12T21:12:49.086Z,97798.94
2023-03-12T21:15:15.993Z,97795.91
2023-03-12T21:17:42.458Z,97793.31
2023-03-12T21:20:17.316Z,97798.00
2023-03-12T21:22:44.157Z,97795.22
2023-03-12T21:25:11.707Z,97786.41
2023-03-12T21:27:49.751Z,97784.94
2023-03-12T21:30:17.518Z,97781.09
2023-03-12T21:32:54.433Z,97765.84
2023-03-12T21:35:24.111Z,97767.84
2023-03-12T21:37:50.825Z,97761.72
2023-03-12T21:40:24.236Z,97757.81
2023-03-12T21:42:50.812Z,97758.91
2023-03-12T21:45:17.644Z,97758.31
2023-03-12T21:47:44.329Z,97766.47
2023-03-12T21:50:11.563Z,97761.13
2023-03-12T21:52:42.993Z,97765.78
2023-03-12T21:55:10.608Z,97770.03
2023-03-12T21:57:37.201Z,97765.53
2023-03-12T22:00:05.858Z,97760.50
2023-03-12T22:02:32.651Z,97752.78
2023-03-12T22:05:00.417Z,97757.97
2023-03-12T22:07:30.198Z,97752.09
2023-03-12T22:10:01.229Z,97733.56
2023-03-12T22:12:27.711Z,97728.84
2023-03-12T22:14:54.277Z,97718.03
2023-03-12T22:17:20.985Z,97715.59
2023-03-12T22:19:47.515Z,97721.31
2023-03-12T22:22:16.111Z,97721.66
2023-03-12T22:24:44.401Z,97720.09
2023-03-12T22:27:10.954Z,97716.75
2023-03-12T22:29:37.540Z,97709.34
2023-03-12T22:32:04.517Z,97710.69
2023-03-12T22:34:33.985Z,97704.25
2023-03-12T22:37:00.591Z,97697.84
2023-03-12T22:39:28.814Z,97703.66
2023-03-12T22:41:55.312Z,97699.00
2023-03-12T22:44:21.851Z,97700.97
2023-03-12T22:46:51.082Z,97698.72
2023-03-12T22:49:17.694Z,97694.03
2023-03-12T22:51:44.272Z,97685.13
2023-03-12T22:54:10.951Z,97685.81
2023-03-12T22:56:37.485Z,97678.00
2023-03-12T22:59:04.229Z,97671.75
2023-03-12T23:01:41.347Z,97668.56
2023-03-12T23:04:10.598Z,97669.19
2023-03-12T23:06:37.168Z,97665.97
2023-03-12T23:09:05.848Z,97662.06
2023-03-12T23:11:32.499Z,97665.63
2023-03-12T23:14:00.890Z,97660.16
2023-03-12T23:16:29.290Z,97653.56
2023-03-12T23:18:56.653Z,97656.00
2023-03-12T23:21:25.595Z,97647.09
2023-03-12T23:23:52.979Z,97634.00
2023-03-12T23:26:26.499Z,97632.91
2023-03-12T23:28:57.621Z,97629.88
2023-03-12T23:31:25.172Z,97614.97
2023-03-12T23:33:51.966Z,97616.88
2023-03-12T23:36:23.361Z,97620.75
2023-03-12T23:38:50.499Z,97613.94
2023-03-12T23:41:27.344Z,97622.91
2023-03-12T23:43:53.851Z,97620.34
2023-03-12T23:46:21.031Z,97618.94
2023-03-12T23:48:52.168Z,97620.91
2023-03-12T23:51:27.727Z,97619.88
2023-03-12T23:54:05.203Z,97622.22
2023-03-12T23:56:34.034Z,97622.13
2023-03-12T23:59:02.497Z,97615.91
